Time;durP1;ratioP1;P1;durP2;ratioP2;P2;SDS_P1;SDS_P2;PMS_P1;PMS_P2;Temp;Humidity;BMP_temperature;BMP_pressure;BME280_temperature;BME280_humidity;BME280_pressure;Samples;Min_cycle;Max_cycle;Signal;HPM_P1;HPM_P2
2023/04/10 00:00:56;;;;;;;21.00;18.87;;;;;;;9.93;100.00;101731.53;2071719;28;20586;-69
2023/04/10 00:01:56;;;;;;;21.47;19.20;;;;;;;10.66;100.00;101844.84;2072335;28;20177;-69
2023/04/10 00:03:00;;;;;;;22.00;19.60;;;;;;;10.68;100.00;101848.03;2072522;28;21047;-69
2023/04/10 00:04:02;;;;;;;21.47;19.17;;;;;;;9.99;100.00;101736.25;2072500;28;20789;-69
2023/04/10 00:05:02;;;;;;;23.63;20.07;;;;;;;10.63;100.00;101844.88;2072576;28;20480;-69
2023/04/10 00:06:03;;;;;;;22.03;19.60;;;;;;;10.69;100.00;101852.38;2071653;28;20460;-69
2023/04/10 00:07:03;;;;;;;21.63;19.33;;;;;;;10.69;100.00;101851.56;2072326;28;20236;-69
2023/04/10 00:08:04;;;;;;;22.37;19.97;;;;;;;10.73;100.00;101852.34;2072177;28;20185;-69
2023/04/10 00:09:04;;;;;;;24.93;20.00;;;;;;;10.37;100.00;101793.53;2072313;28;20558;-69
2023/04/10 00:10:05;;;;;;;21.50;18.87;;;;;;;10.74;100.00;101849.16;2072255;28;20177;-69
2023/04/10 00:11:05;;;;;;;22.03;19.07;;;;;;;10.75;100.00;101844.41;2072208;28;20180;-69
2023/04/10 00:12:06;;;;;;;23.07;19.23;;;;;;;10.75;100.00;101847.97;2072043;28;20673;-69
2023/04/10 00:13:06;;;;;;;23.00;19.70;;;;;;;10.75;100.00;101844.41;2072516;28;20213;-69
2023/04/10 00:14:07;;;;;;;21.97;19.60;;;;;;;10.73;100.00;101836.50;2068935;28;20248;-69
2023/04/10 00:15:08;;;;;;;22.07;19.67;;;;;;;10.61;100.00;101814.78;2068116;28;20836;-69
2023/04/10 00:16:08;;;;;;;23.63;19.17;;;;;;;10.77;100.00;101834.47;2071672;28;20245;-69
2023/04/10 00:17:08;;;;;;;22.27;19.73;;;;;;;10.76;100.00;101835.69;2072329;28;20245;-69
2023/04/10 00:18:09;;;;;;;21.40;19.10;;;;;;;10.76;100.00;101843.22;2072300;28;20556;-69
2023/04/10 00:19:10;;;;;;;21.10;18.90;;;;;;;10.78;100.00;101838.06;2072521;28;20315;-70
2023/04/10 00:20:11;;;;;;;22.17;19.50;;;;;;;10.78;100.00;101836.09;2063571;28;20561;-69
2023/04/10 00:21:11;;;;;;;22.20;19.80;;;;;;;10.77;100.00;101842.81;2063109;28;20262;-69
2023/04/10 00:22:12;;;;;;;22.87;20.53;;;;;;;10.76;100.00;101840.47;2071879;28;20655;-69
2023/04/10 00:23:12;;;;;;;20.30;18.27;;;;;;;10.79;100.00;101834.09;2072342;28;20189;-69
2023/04/10 00:24:12;;;;;;;23.13;20.73;;;;;;;10.74;100.00;101834.50;2072316;28;20323;-69
2023/04/10 00:25:13;;;;;;;24.33;20.80;;;;;;;10.76;100.00;101840.47;2071514;28;20170;-69
2023/04/10 00:26:13;;;;;;;21.97;19.70;;;;;;;10.72;100.00;101837.69;2071677;28;20216;-69
2023/04/10 00:27:14;;;;;;;22.37;19.97;;;;;;;10.73;100.00;101833.75;2072508;28;20182;-69
2023/04/10 00:28:16;;;;;;;24.67;22.07;;;;;;;10.73;100.00;101832.94;2072201;28;20193;-69
2023/04/10 00:29:16;;;;;;;23.87;21.23;;;;;;;10.74;100.00;101828.97;2072382;28;20194;-69
2023/04/10 00:30:17;;;;;;;24.47;21.93;;;;;;;10.74;100.00;101829.75;2063456;28;20477;-69
2023/04/10 00:31:17;;;;;;;24.33;21.73;;;;;;;10.75;100.00;101825.78;2063048;28;20615;-69
2023/04/10 00:32:17;;;;;;;24.67;22.10;;;;;;;10.74;100.00;101832.53;2071921;28;20200;-69
2023/04/10 00:33:18;;;;;;;24.80;22.00;;;;;;;10.55;100.00;101813.63;2063529;28;20177;-69
2023/04/10 00:34:18;;;;;;;24.57;21.97;;;;;;;9.61;100.00;101654.16;2064653;28;20694;-69
2023/04/10 00:35:19;;;;;;;25.00;22.30;;;;;;;10.70;100.00;101825.41;2072043;28;20563;-69
2023/04/10 00:36:19;;;;;;;24.50;21.90;;;;;;;10.67;100.00;101827.00;2072027;28;20173;-69
2023/04/10 00:37:20;;;;;;;26.83;22.77;;;;;;;10.65;100.00;101823.09;2072253;28;20197;-69
2023/04/10 00:38:21;;;;;;;26.67;23.83;;;;;;;10.42;100.00;101793.09;2072591;28;20240;-69
2023/04/10 00:39:21;;;;;;;26.60;23.80;;;;;;;10.54;100.00;101820.34;2072351;28;20253;-69
2023/04/10 00:40:22;;;;;;;26.33;23.63;;;;;;;10.63;100.00;101819.91;2072292;28;20189;-69
2023/04/10 00:41:22;;;;;;;27.67;24.77;;;;;;;10.58;100.00;101828.66;2071799;28;20182;-69
2023/04/10 00:42:23;;;;;;;27.27;23.40;;;;;;;9.76;100.00;101718.53;2071199;28;20202;-69
2023/04/10 00:43:23;;;;;;;25.10;22.50;;;;;;;10.34;100.00;101797.09;2065863;28;20556;-69
2023/04/10 00:44:24;;;;;;;25.20;22.60;;;;;;;10.45;100.00;101825.53;2073953;28;20178;-69
2023/04/10 00:45:24;;;;;;;24.87;22.23;;;;;;;10.49;100.00;101825.50;2066238;28;20208;-69
2023/04/10 00:46:26;;;;;;;25.47;21.67;;;;;;;10.49;100.00;101820.78;2071532;28;20189;-69
2023/04/10 00:47:27;;;;;;;23.47;20.93;;;;;;;10.49;100.00;101826.31;2068713;28;20190;-69
2023/04/10 00:48:28;;;;;;;24.73;21.63;;;;;;;9.69;100.00;101697.19;2069858;28;20497;-69
2023/04/10 00:49:30;;;;;;;24.03;21.43;;;;;;;10.32;100.00;101812.53;2070230;28;20664;-69
2023/04/10 00:50:30;;;;;;;24.30;21.70;;;;;;;10.48;100.00;101823.94;2067117;28;20179;-69
2023/04/10 00:51:31;;;;;;;24.23;21.00;;;;;;;10.48;100.00;101830.28;2072375;28;20416;-69
2023/04/10 00:52:32;;;;;;;23.80;20.07;;;;;;;10.46;100.00;101824.34;2065565;28;20174;-69
2023/04/10 00:53:32;;;;;;;22.93;19.47;;;;;;;10.47;100.00;101825.13;2073876;28;20197;-69
2023/04/10 00:54:35;;;;;;;22.97;20.47;;;;;;;10.49;100.00;101825.50;2073078;28;20193;-69
2023/04/10 00:55:35;;;;;;;28.33;19.53;;;;;;;9.45;100.00;101653.81;2073451;28;20193;-69
2023/04/10 00:56:36;;;;;;;27.83;20.13;;;;;;;10.50;100.00;101818.81;2068330;28;20421;-69
2023/04/10 00:57:37;;;;;;;26.80;19.87;;;;;;;10.47;100.00;101819.59;2069342;28;20283;-69
2023/04/10 00:58:37;;;;;;;27.73;20.27;;;;;;;9.96;100.00;101744.59;2071097;28;20186;-69
2023/04/10 00:59:38;;;;;;;31.40;19.83;;;;;;;10.46;100.00;101820.81;2067151;28;20256;-69
2023/04/10 01:00:39;;;;;;;32.03;20.63;;;;;;;10.36;100.00;101821.63;2073317;28;20228;-69
2023/04/10 01:01:40;;;;;;;28.37;19.70;;;;;;;10.25;100.00;101787.63;2074020;28;20555;-69
2023/04/10 01:02:41;;;;;;;30.57;20.57;;;;;;;10.44;100.00;101821.19;2073304;28;20447;-69
2023/04/10 01:03:42;;;;;;;29.23;20.30;;;;;;;10.46;100.00;101815.25;2073748;28;20196;-69
2023/04/10 01:04:43;;;;;;;27.20;21.03;;;;;;;10.45;100.00;101814.44;2073663;28;20551;-69
2023/04/10 01:06:11;;;;;;;26.80;19.53;;;;;;;10.47;100.00;101819.59;2073386;28;20537;-70
2023/04/10 01:07:23;;;;;;;25.90;20.20;;;;;;;10.45;100.00;101820.00;2073537;28;20344;-69
2023/04/10 01:08:26;;;;;;;24.03;19.73;;;;;;;10.45;100.00;101819.22;2073718;28;20436;-69
2023/04/10 01:09:36;;;;;;;22.63;20.17;;;;;;;10.46;100.00;101815.25;2073777;28;20448;-69
2023/04/10 01:11:00;;;;;;;23.80;20.43;;;;;;;10.46;100.00;101807.72;2073280;28;20431;-69
2023/04/10 01:12:13;;;;;;;22.20;19.43;;;;;;;10.45;100.00;101816.44;2056605;28;20413;-69
2023/04/10 01:13:49;;;;;;;22.30;19.90;;;;;;;10.35;100.00;101808.97;2058707;28;20413;-69
2023/04/10 01:15:07;;;;;;;21.03;18.73;;;;;;;10.38;100.00;101810.91;2068983;28;20486;-69
2023/04/10 01:16:23;;;;;;;24.00;19.77;;;;;;;10.22;100.00;101793.97;2073410;28;20946;-69
2023/04/10 01:17:53;;;;;;;21.77;19.43;;;;;;;10.34;100.00;101813.72;2073260;28;20955;-69
2023/04/10 01:19:01;;;;;;;23.10;17.63;;;;;;;10.39;100.00;101816.06;2040564;29;20759;-69
2023/04/10 01:20:08;;;;;;;21.50;17.70;;;;;;;10.40;100.00;101809.31;2040687;28;20407;-69
2023/04/10 01:21:10;;;;;;;22.33;17.43;;;;;;;10.39;100.00;101816.06;2065154;28;20425;-69
2023/04/10 01:22:15;;;;;;;27.47;18.20;;;;;;;10.25;100.00;101791.19;2065218;28;20927;-69
2023/04/10 01:23:31;;;;;;;32.90;19.83;;;;;;;10.45;100.00;101814.44;2065522;28;20544;-69
2023/04/10 01:24:46;;;;;;;32.77;20.63;;;;;;;10.45;100.00;101811.69;2065609;28;20444;-69
2023/04/10 01:25:47;;;;;;;31.00;18.77;;;;;;;10.45;100.00;101813.69;2065211;28;20396;-69
2023/04/10 01:27:18;;;;;;;23.17;18.93;;;;;;;10.33;100.00;101789.97;2072845;28;20460;-69
2023/04/10 01:28:18;;;;;;;29.77;19.47;;;;;;;10.42;100.00;101806.97;2061938;28;20182;-69
2023/04/10 01:29:20;;;;;;;26.80;19.67;;;;;;;10.42;100.00;101811.69;2065688;28;20449;-69
2023/04/10 01:30:22;;;;;;;23.23;18.83;;;;;;;10.27;100.00;101785.25;2057653;28;20206;-69
2023/04/10 01:32:02;;;;;;;26.30;19.67;;;;;;;10.40;100.00;101803.78;2064094;28;20572;-69
2023/04/10 01:33:05;;;;;;;23.30;18.30;;;;;;;10.40;100.00;101800.25;2053117;28;20592;-69
2023/04/10 01:34:20;;;;;;;20.30;17.77;;;;;;;10.39;100.00;101801.41;2065304;28;20436;-69
2023/04/10 01:35:22;;;;;;;25.23;18.80;;;;;;;10.38;100.00;101806.19;2064977;28;20540;-69
2023/04/10 01:36:27;;;;;;;22.47;18.17;;;;;;;9.71;100.00;101700.38;2064252;28;20421;-69
2023/04/10 01:37:30;;;;;;;19.97;17.87;;;;;;;10.33;100.00;101794.72;2057554;28;20422;-69
2023/04/10 01:38:32;;;;;;;22.00;18.83;;;;;;;10.13;100.00;101772.25;2065641;28;20417;-69
2023/04/10 01:39:36;;;;;;;20.93;18.73;;;;;;;10.32;100.00;101802.25;2065484;28;20481;-69
2023/04/10 01:40:38;;;;;;;23.33;19.40;;;;;;;10.22;100.00;101792.00;2064975;28;20864;-69
2023/04/10 01:41:43;;;;;;;22.42;19.85;;;;;;;10.34;100.00;101810.94;2058755;28;20429;-69
2023/04/10 01:42:49;;;;;;;21.90;19.23;;;;;;;9.80;100.00;101730.41;2063122;28;20753;-69
2023/04/10 01:43:51;;;;;;;21.15;18.92;;;;;;;10.40;100.00;101825.19;2059782;28;20405;-69
2023/04/10 01:44:53;;;;;;;23.00;19.20;;;;;;;10.40;100.00;101809.31;2062123;28;20213;-69
2023/04/10 01:45:56;;;;;;;22.93;19.50;;;;;;;10.40;100.00;101806.56;2061061;28;20436;-69
2023/04/10 01:46:58;;;;;;;22.53;19.53;;;;;;;9.36;100.00;101641.56;2060412;28;21154;-69
2023/04/10 01:47:59;;;;;;;22.83;18.87;;;;;;;9.74;100.00;101716.16;2062634;28;20880;-69
2023/04/10 01:49:01;;;;;;;24.50;19.03;;;;;;;10.45;100.00;101808.13;2058305;28;20449;-69
2023/04/10 01:50:02;;;;;;;21.50;19.20;;;;;;;10.46;100.00;101838.19;2065074;28;20409;-69
2023/04/10 01:51:05;;;;;;;22.07;19.67;;;;;;;10.47;100.00;101808.50;2065100;28;20429;-69
2023/04/10 01:52:06;;;;;;;25.80;19.83;;;;;;;10.35;100.00;101795.13;2057396;28;20432;-69
2023/04/10 01:53:07;;;;;;;26.30;19.03;;;;;;;9.62;100.00;101666.00;2063237;28;20980;-69
2023/04/10 01:54:08;;;;;;;24.10;19.67;;;;;;;10.49;100.00;101804.16;2059753;28;20266;-69
2023/04/10 01:55:09;;;;;;;24.70;19.90;;;;;;;10.53;100.00;101809.66;2062980;28;20635;-69
2023/04/10 01:56:11;;;;;;;25.60;20.53;;;;;;;10.53;100.00;101799.38;2061718;28;20483;-69
2023/04/10 01:57:13;;;;;;;25.50;20.83;;;;;;;10.51;100.00;101803.75;2059460;28;20183;-69
2023/04/10 01:58:14;;;;;;;24.30;20.10;;;;;;;10.05;100.00;101728.38;2063393;28;20432;-69
2023/04/10 01:59:15;;;;;;;24.53;20.53;;;;;;;10.49;100.00;101804.16;2057673;28;20496;-69
2023/04/10 02:00:16;;;;;;;29.27;21.23;;;;;;;10.31;100.00;101791.56;2065272;28;20573;-69
2023/04/10 02:01:20;;;;;;;26.70;19.87;;;;;;;9.77;100.00;101697.97;2057273;28;20907;-69
2023/04/10 02:02:21;;;;;;;26.67;20.63;;;;;;;10.47;100.00;101805.75;2063764;28;20906;-69
2023/04/10 02:03:21;;;;;;;27.57;20.10;;;;;;;10.47;100.00;101802.97;2059537;28;20453;-69
2023/04/10 02:04:22;;;;;;;26.20;20.57;;;;;;;10.32;100.00;101782.84;2061766;28;20205;-69
2023/04/10 02:05:28;;;;;;;24.27;18.77;;;;;;;10.39;100.00;101790.31;2061321;28;20186;-69
2023/04/10 02:06:50;;;;;;;20.60;18.30;;;;;;;10.45;100.00;101800.59;2060310;28;20254;-69
2023/04/10 02:08:04;;;;;;;22.27;19.10;;;;;;;10.45;100.00;101791.50;2060101;28;20418;-69
2023/04/10 02:09:18;;;;;;;23.03;17.30;;;;;;;10.45;100.00;101806.13;2062753;28;20447;-69
2023/04/10 02:10:28;;;;;;;23.10;19.70;;;;;;;10.45;100.00;101794.28;2058957;28;20424;-69
2023/04/10 02:11:37;;;;;;;20.53;18.43;;;;;;;10.44;100.00;101793.47;2062961;28;20455;-69
2023/04/10 02:13:05;;;;;;;21.13;18.47;;;;;;;10.45;100.00;101795.06;2058509;28;20426;-69
2023/04/10 02:14:10;;;;;;;24.93;18.80;;;;;;;10.47;100.00;101795.47;2056197;28;20453;-69
2023/04/10 02:15:11;;;;;;;24.90;20.27;;;;;;;10.45;100.00;101791.50;2065263;28;20997;-69
2023/04/10 02:16:16;;;;;;;28.63;21.63;;;;;;;10.43;100.00;101783.59;2064913;28;20543;-69
2023/04/10 02:17:22;;;;;;;25.27;20.10;;;;;;;10.41;100.00;101791.50;2064956;28;20910;-69
2023/04/10 02:18:24;;;;;;;25.60;19.73;;;;;;;10.43;100.00;101788.34;2064832;28;20926;-69
2023/04/10 02:19:26;;;;;;;28.03;22.23;;;;;;;10.29;100.00;101774.53;2064851;28;20479;-69
2023/04/10 02:20:27;;;;;;;26.80;21.57;;;;;;;10.39;100.00;101796.66;2069710;28;20447;-69
2023/04/10 02:21:27;;;;;;;30.37;20.50;;;;;;;9.99;100.00;101730.72;2069077;28;20887;-69
2023/04/10 02:22:28;;;;;;;26.30;20.90;;;;;;;10.31;100.00;101780.47;2071538;28;20669;-69
2023/04/10 02:23:29;;;;;;;24.40;20.13;;;;;;;10.34;100.00;101788.78;2071791;28;20193;-69
2023/04/10 02:24:30;;;;;;;23.80;20.33;;;;;;;10.37;100.00;101787.97;2064957;28;20255;-69
2023/04/10 02:25:32;;;;;;;27.40;20.20;;;;;;;10.11;100.00;101752.47;2072930;28;20177;-69
2023/04/10 02:26:49;;;;;;;28.37;20.37;;;;;;;10.30;100.00;101776.13;2065767;28;20429;-69
2023/04/10 02:27:50;;;;;;;26.40;21.10;;;;;;;10.33;100.00;101778.88;2065139;28;20432;-69
2023/04/10 02:28:50;;;;;;;24.63;20.03;;;;;;;9.73;100.00;101678.59;2072036;28;20520;-69
2023/04/10 02:29:51;;;;;;;23.47;20.30;;;;;;;10.42;100.00;101786.75;2073145;28;20195;-69
2023/04/10 02:30:51;;;;;;;28.37;20.80;;;;;;;10.27;100.00;101760.31;2072462;28;20185;-69
2023/04/10 02:31:52;;;;;;;34.30;20.27;;;;;;;10.45;100.00;101795.06;2073125;28;20203;-69
2023/04/10 02:32:52;;;;;;;32.17;20.60;;;;;;;10.48;100.00;101785.13;2072687;28;20580;-69
2023/04/10 02:33:53;;;;;;;31.90;20.00;;;;;;;10.44;100.00;101778.81;2073005;28;20185;-69
2023/04/10 02:34:54;;;;;;;30.00;20.13;;;;;;;10.49;100.00;101787.50;2072911;28;20235;-69
2023/04/10 02:35:54;;;;;;;28.97;19.20;;;;;;;10.53;100.00;101788.28;2072708;28;20251;-69
2023/04/10 02:36:55;;;;;;;24.27;19.97;;;;;;;10.38;100.00;101761.03;2073122;28;20669;-69
2023/04/10 02:37:56;;;;;;;25.47;20.37;;;;;;;10.39;100.00;101768.97;2072755;28;20196;-69
2023/04/10 02:38:56;;;;;;;25.20;20.17;;;;;;;10.48;100.00;101777.63;2072071;28;20204;-69
2023/04/10 02:39:56;;;;;;;23.87;19.63;;;;;;;10.49;100.00;101781.16;2072031;28;20546;-69
2023/04/10 02:40:57;;;;;;;27.83;20.10;;;;;;;10.33;100.00;101761.47;2069456;28;20181;-69
2023/04/10 02:41:57;;;;;;;26.90;20.00;;;;;;;10.49;100.00;101779.19;2066493;28;20198;-69
2023/04/10 02:42:58;;;;;;;23.83;19.40;;;;;;;10.49;100.00;101783.94;2072127;28;20169;-69
2023/04/10 02:43:58;;;;;;;23.77;20.00;;;;;;;10.14;100.00;101728.72;2064997;28;20200;-69
2023/04/10 02:44:59;;;;;;;27.20;19.73;;;;;;;10.24;100.00;101741.75;2072777;28;20227;-69
2023/04/10 02:45:59;;;;;;;25.27;20.80;;;;;;;10.46;100.00;101776.44;2065751;28;20170;-69
2023/04/10 02:47:00;;;;;;;23.97;20.90;;;;;;;10.17;100.00;101747.28;2069747;28;20241;-69
2023/04/10 02:48:00;;;;;;;24.83;20.73;;;;;;;9.28;100.00;101615.91;2067898;28;20555;-69
2023/04/10 02:49:01;;;;;;;26.60;20.83;;;;;;;10.28;100.00;101778.50;2067777;28;20197;-69
2023/04/10 02:50:01;;;;;;;27.07;20.37;;;;;;;10.27;100.00;101779.69;2072744;28;20184;-69
2023/04/10 02:51:02;;;;;;;25.63;19.73;;;;;;;10.25;100.00;101776.56;2072485;28;20627;-69
2023/04/10 02:52:03;;;;;;;27.67;20.83;;;;;;;9.58;100.00;101690.16;2072621;28;20221;-69
2023/04/10 02:53:03;;;;;;;27.30;20.10;;;;;;;10.22;100.00;101778.16;2073051;28;20196;-69
2023/04/10 02:54:04;;;;;;;24.90;20.63;;;;;;;10.20;100.00;101779.75;2072851;28;20185;-69
2023/04/10 02:55:05;;;;;;;25.50;20.60;;;;;;;10.17;100.00;101781.34;2067466;28;20304;-69
2023/04/10 02:56:06;;;;;;;27.10;20.50;;;;;;;10.16;100.00;101782.53;2068995;28;20276;-69
2023/04/10 02:57:07;;;;;;;25.75;20.40;;;;;;;10.10;100.00;101778.56;2072795;28;20439;-69
2023/04/10 02:58:07;;;;;;;25.97;20.97;;;;;;;10.13;100.00;101785.28;2072838;28;20176;-69
2023/04/10 02:59:08;;;;;;;21.83;19.53;;;;;;;10.11;100.00;101771.88;2072412;28;20175;-69
2023/04/10 03:00:09;;;;;;;27.07;20.90;;;;;;;10.20;100.00;101788.81;2072589;28;20173;-69
2023/04/10 03:01:09;;;;;;;22.27;19.83;;;;;;;10.23;100.00;101788.03;2063758;28;20188;-69
2023/04/10 03:02:10;;;;;;;24.93;20.13;;;;;;;10.21;100.00;101781.31;2063802;28;20966;-69
2023/04/10 03:03:10;;;;;;;22.70;20.13;;;;;;;10.18;100.00;101771.84;2067021;28;20170;-69
2023/04/10 03:04:11;;;;;;;23.07;20.17;;;;;;;10.13;100.00;101776.97;2069679;28;20562;-69
2023/04/10 03:05:12;;;;;;;22.57;19.00;;;;;;;10.19;100.00;101778.94;2067857;28;20181;-69
2023/04/10 03:06:12;;;;;;;24.40;20.07;;;;;;;9.13;100.00;101614.34;2067216;28;20204;-69
2023/04/10 03:07:12;;;;;;;22.57;20.13;;;;;;;10.14;100.00;101784.13;2072830;28;20176;-69
2023/04/10 03:08:13;;;;;;;28.53;21.67;;;;;;;10.13;100.00;101783.31;2072555;28;20183;-69
2023/04/10 03:09:13;;;;;;;26.07;21.47;;;;;;;10.12;100.00;101787.28;2072654;28;20177;-69
2023/04/10 03:10:14;;;;;;;29.37;21.10;;;;;;;10.21;100.00;101782.13;2065396;28;20270;-69
2023/04/10 03:11:15;;;;;;;25.00;19.73;;;;;;;10.22;100.00;101780.13;2070550;28;20197;-69
2023/04/10 03:12:15;;;;;;;30.70;20.93;;;;;;;9.92;100.00;101747.38;2072392;28;20197;-69
2023/04/10 03:13:16;;;;;;;28.13;20.60;;;;;;;10.17;100.00;101786.88;2072665;28;20196;-69
2023/04/10 03:14:16;;;;;;;23.00;20.57;;;;;;;10.13;100.00;101782.53;2072836;28;20187;-69
2023/04/10 03:15:17;;;;;;;27.40;20.90;;;;;;;10.17;100.00;101783.31;2072332;28;20697;-69
2023/04/10 03:16:17;;;;;;;30.33;20.70;;;;;;;10.07;100.00;101775.81;2072658;28;20184;-69
2023/04/10 03:17:18;;;;;;;26.33;20.77;;;;;;;10.13;100.00;101786.09;2072124;28;20190;-69
2023/04/10 03:18:18;;;;;;;21.80;19.60;;;;;;;10.15;100.00;101788.47;2064546;28;20198;-69
2023/04/10 03:19:19;;;;;;;23.33;20.17;;;;;;;10.15;100.00;101788.47;2072119;28;20240;-69
2023/04/10 03:20:19;;;;;;;24.40;19.37;;;;;;;10.11;100.00;101782.94;2072631;28;20191;-69
2023/04/10 03:21:20;;;;;;;22.83;20.43;;;;;;;9.73;100.00;101736.75;2072185;28;20214;-69
2023/04/10 03:22:21;;;;;;;23.67;19.43;;;;;;;10.08;100.00;101794.00;2069454;28;20201;-69
2023/04/10 03:23:21;;;;;;;22.63;20.23;;;;;;;10.08;100.00;101791.25;2072696;28;20494;-69
2023/04/10 03:24:21;;;;;;;22.77;20.40;;;;;;;9.78;100.00;101746.63;2072680;28;20677;-69
2023/04/10 03:25:22;;;;;;;21.67;19.27;;;;;;;10.10;100.00;101791.66;2072436;28;20214;-69
2023/04/10 03:26:22;;;;;;;23.93;21.33;;;;;;;10.09;100.00;101795.63;2072515;28;20184;-69
2023/04/10 03:27:23;;;;;;;23.73;20.77;;;;;;;10.04;100.00;101788.50;2072508;28;20196;-69
2023/04/10 03:28:24;;;;;;;25.47;20.37;;;;;;;10.01;100.00;101791.25;2072730;28;20667;-69
2023/04/10 03:29:24;;;;;;;26.63;21.17;;;;;;;9.87;100.00;101769.13;2072194;28;20189;-69
2023/04/10 03:30:24;;;;;;;25.43;20.53;;;;;;;9.99;100.00;101791.63;2072639;28;20196;-69
2023/04/10 03:31:26;;;;;;;22.50;20.03;;;;;;;9.98;100.00;101789.25;2072106;28;20258;-69
2023/04/10 03:32:29;;;;;;;25.20;21.07;;;;;;;9.98;100.00;101792.84;2072255;28;20185;-69
2023/04/10 03:33:30;;;;;;;23.57;21.07;;;;;;;9.95;100.00;101795.63;2072486;28;20515;-69
2023/04/10 03:34:30;;;;;;;27.33;20.57;;;;;;;9.93;100.00;101790.47;2069981;28;20416;-69
2023/04/10 03:35:31;;;;;;;24.20;20.43;;;;;;;9.92;100.00;101796.41;2069830;28;20220;-69
2023/04/10 03:36:31;;;;;;;25.73;20.23;;;;;;;9.91;100.00;101794.84;2072629;28;20194;-69
2023/04/10 03:37:32;;;;;;;33.67;21.40;;;;;;;9.90;100.00;101802.34;2072517;28;20212;-69
2023/04/10 03:38:32;;;;;;;31.93;21.07;;;;;;;9.88;100.00;101804.72;2072577;28;20180;-69
2023/04/10 03:39:33;;;;;;;34.33;20.13;;;;;;;9.88;100.00;101804.72;2072160;28;20178;-69
2023/04/10 03:40:34;;;;;;;32.30;20.57;;;;;;;9.37;100.00;101726.94;2072266;28;20252;-69
2023/04/10 03:41:35;;;;;;;29.57;20.83;;;;;;;9.86;100.00;101804.34;2072481;28;20179;-69
2023/04/10 03:42:35;;;;;;;28.80;20.37;;;;;;;9.86;100.00;101809.09;2072076;28;20435;-69
2023/04/10 03:43:36;;;;;;;33.33;21.97;;;;;;;9.86;100.00;101806.31;2072664;28;20197;-69
2023/04/10 03:44:36;;;;;;;37.13;21.70;;;;;;;9.13;100.00;101707.59;2072491;28;20321;-69
2023/04/10 03:45:37;;;;;;;32.80;21.87;;;;;;;9.76;100.00;101813.47;2072139;28;20686;-69
2023/04/10 03:46:37;;;;;;;32.17;22.03;;;;;;;9.67;100.00;101792.91;2072523;28;20570;-69
2023/04/10 03:47:38;;;;;;;25.53;21.53;;;;;;;9.75;100.00;101813.84;2072327;28;20554;-69
2023/04/10 03:48:38;;;;;;;35.77;20.87;;;;;;;9.55;100.00;101785.81;2072482;28;20180;-69
2023/04/10 03:49:38;;;;;;;33.37;21.57;;;;;;;9.62;100.00;101788.56;2072305;28;20259;-69
2023/04/10 03:50:39;;;;;;;37.70;21.23;;;;;;;9.72;100.00;101798.84;2072235;28;20192;-69
2023/04/10 03:51:39;;;;;;;35.20;22.23;;;;;;;9.70;100.00;101798.44;2072624;28;20188;-69
2023/04/10 03:52:40;;;;;;;33.07;21.60;;;;;;;9.73;100.00;101814.25;2072197;28;20279;-69
2023/04/10 03:53:40;;;;;;;33.67;20.67;;;;;;;9.74;100.00;101813.06;2072547;28;20580;-69
2023/04/10 03:54:41;;;;;;;32.80;21.80;;;;;;;9.73;100.00;101825.31;2069246;28;20200;-69
2023/04/10 03:55:41;;;;;;;31.03;20.90;;;;;;;9.71;100.00;101818.59;2065319;28;20634;-69
2023/04/10 03:56:42;;;;;;;31.87;22.20;;;;;;;9.73;100.00;101816.25;2072422;28;20271;-69
2023/04/10 03:57:42;;;;;;;31.57;21.43;;;;;;;9.65;100.00;101814.66;2072579;28;20239;-69
2023/04/10 03:58:43;;;;;;;30.07;21.77;;;;;;;9.64;100.00;101827.69;2072446;28;20182;-69
2023/04/10 03:59:43;;;;;;;32.07;20.77;;;;;;;9.63;100.00;101819.81;2072195;28;20193;-69
2023/04/10 04:00:44;;;;;;;27.57;21.13;;;;;;;9.64;100.00;101818.63;2071794;28;20185;-69
2023/04/10 04:01:45;;;;;;;23.60;20.67;;;;;;;9.50;100.00;101802.81;2072494;28;20200;-69
2023/04/10 04:02:47;;;;;;;27.13;20.93;;;;;;;9.64;100.00;101821.38;2072024;28;20493;-69
2023/04/10 04:03:47;;;;;;;25.37;20.93;;;;;;;9.64;100.00;101816.63;2072353;28;20211;-69
2023/04/10 04:04:48;;;;;;;23.63;21.03;;;;;;;9.59;100.00;101830.09;2072336;28;20414;-69
2023/04/10 04:05:48;;;;;;;28.37;21.70;;;;;;;9.59;100.00;101821.78;2071978;28;20570;-69
2023/04/10 04:06:48;;;;;;;25.27;20.87;;;;;;;9.61;100.00;101824.94;2072731;28;20177;-69
2023/04/10 04:07:49;;;;;;;23.97;21.43;;;;;;;9.60;100.00;101834.44;2072289;28;20185;-69
2023/04/10 04:08:49;;;;;;;24.27;21.60;;;;;;;8.91;100.00;101728.94;2066403;28;20197;-69
2023/04/10 04:09:50;;;;;;;26.30;22.13;;;;;;;9.12;100.00;101773.19;2068710;28;20688;-69
2023/04/10 04:10:50;;;;;;;25.23;21.63;;;;;;;9.52;100.00;101833.66;2071715;28;20196;-69
2023/04/10 04:11:51;;;;;;;23.87;21.37;;;;;;;9.46;100.00;101839.97;2072329;28;20204;-69
2023/04/10 04:12:51;;;;;;;25.27;21.93;;;;;;;9.49;100.00;101845.50;2070505;28;20188;-69
2023/04/10 04:13:52;;;;;;;26.97;21.83;;;;;;;9.57;100.00;101840.75;2064626;28;20212;-69
2023/04/10 04:14:52;;;;;;;23.33;20.83;;;;;;;9.57;100.00;101844.31;2072485;28;20226;-69
2023/04/10 04:15:53;;;;;;;23.50;20.83;;;;;;;9.54;100.00;101836.03;2064492;28;20180;-69
2023/04/10 04:16:53;;;;;;;23.30;20.57;;;;;;;9.65;100.00;101842.34;2073245;28;20196;-69
2023/04/10 04:17:56;;;;;;;23.90;21.40;;;;;;;9.49;100.00;101828.13;2069710;28;20627;-69
2023/04/10 04:18:56;;;;;;;23.63;21.23;;;;;;;9.52;100.00;101816.25;2071047;28;20192;-69
2023/04/10 04:19:56;;;;;;;23.03;20.53;;;;;;;9.73;100.00;101841.16;2074623;28;20440;-69
2023/04/10 04:20:57;;;;;;;22.57;20.13;;;;;;;9.78;100.00;101846.28;2074624;28;20169;-69
2023/04/10 04:21:59;;;;;;;23.40;20.93;;;;;;;9.85;100.00;101843.50;2074638;28;20564;-69
2023/04/10 04:22:59;;;;;;;23.87;21.30;;;;;;;9.55;100.00;101799.66;2074959;28;20287;-69
2023/04/10 04:24:00;;;;;;;35.83;22.53;;;;;;;9.93;100.00;101848.63;2075186;28;20551;-69
2023/04/10 04:25:00;;;;;;;35.10;22.37;;;;;;;9.96;100.00;101844.28;2066414;28;20684;-69
2023/04/10 04:26:01;;;;;;;41.13;24.20;;;;;;;9.50;100.00;101775.16;2065813;28;20270;-69
2023/04/10 04:27:01;;;;;;;36.67;22.37;;;;;;;10.02;100.00;101839.91;2075046;28;20335;-69
2023/04/10 04:28:01;;;;;;;34.60;22.00;;;;;;;9.96;100.00;101835.97;2074869;28;20186;-69
2023/04/10 04:29:02;;;;;;;27.87;21.37;;;;;;;10.04;100.00;101835.56;2075102;28;20182;-69
2023/04/10 04:30:04;;;;;;;34.27;21.67;;;;;;;9.57;100.00;101771.56;2074386;28;20208;-69
2023/04/10 04:31:05;;;;;;;26.10;21.53;;;;;;;10.04;100.00;101843.88;2074477;28;20184;-69
2023/04/10 04:32:05;;;;;;;23.63;20.13;;;;;;;10.06;100.00;101838.75;2074702;28;20428;-69
2023/04/10 04:33:06;;;;;;;26.80;21.07;;;;;;;10.07;100.00;101848.63;2075148;28;20189;-71
2023/04/10 04:34:06;;;;;;;24.27;20.63;;;;;;;10.09;100.00;101849.00;2074417;28;20192;-69
2023/04/10 04:35:08;;;;;;;26.47;20.93;;;;;;;9.17;100.00;101702.88;2063353;28;20252;-69
2023/04/10 04:36:08;;;;;;;27.57;21.10;;;;;;;10.12;100.00;101847.44;2061631;28;20213;-69
2023/04/10 04:37:09;;;;;;;36.37;21.83;;;;;;;9.53;100.00;101759.72;2069947;28;20522;-69
2023/04/10 04:38:09;;;;;;;38.60;22.53;;;;;;;10.15;100.00;101835.56;2074100;28;20169;-69
2023/04/10 04:39:10;;;;;;;47.23;25.00;;;;;;;9.99;100.00;101819.34;2069294;28;20189;-70
2023/04/10 04:40:10;;;;;;;55.67;24.20;;;;;;;10.13;100.00;101844.25;2066689;28;20200;-69
2023/04/10 04:41:11;;;;;;;50.00;24.60;;;;;;;10.16;100.00;101848.22;2072843;28;20266;-69
2023/04/10 04:42:11;;;;;;;47.53;23.87;;;;;;;10.16;100.00;101848.22;2073929;28;20189;-69